createdAt,value
2024-04-11T00:00:25.030Z,69.85
2024-04-11T00:01:25.331Z,118.88
2024-04-11T00:02:25.119Z,213.30
2024-04-11T00:03:25.046Z,377.79
2024-04-11T00:04:25.023Z,376.14
2024-04-11T00:05:24.924Z,278.78
2024-04-11T00:06:24.815Z,217.48
2024-04-11T00:07:24.755Z,177.51
2024-04-11T00:08:24.738Z,149.69
2024-04-11T00:09:24.693Z,147.88
2024-04-11T00:10:24.639Z,129.83
2024-04-11T00:11:24.667Z,113.43
2024-04-11T00:12:24.688Z,97.20
2024-04-11T00:13:24.631Z,88.96
2024-04-11T00:14:24.714Z,81.07
2024-04-11T00:15:24.644Z,78.41
2024-04-11T00:16:24.705Z,72.83
2024-04-11T00:17:24.757Z,70.00
2024-04-11T00:18:24.970Z,67.62
2024-04-11T00:19:24.703Z,64.26
2024-04-11T00:20:24.754Z,61.56
2024-04-11T00:21:24.684Z,59.75
2024-04-11T00:22:24.727Z,56.98
2024-04-11T00:23:24.821Z,55.96
2024-04-11T00:24:24.729Z,55.75
2024-04-11T00:25:24.702Z,55.12
2024-04-11T00:26:24.750Z,52.15
2024-04-11T00:27:24.671Z,50.94
2024-04-11T00:28:24.647Z,48.05
2024-04-11T00:29:24.703Z,45.48
2024-04-11T00:30:24.583Z,43.75
2024-04-11T00:31:24.511Z,41.74
2024-04-11T00:32:24.772Z,40.40
2024-04-11T00:33:24.693Z,38.18
2024-04-11T00:34:24.560Z,36.98
2024-04-11T00:35:24.390Z,36.36
2024-04-11T00:36:24.298Z,34.99
2024-04-11T00:37:24.247Z,34.83
2024-04-11T00:38:24.230Z,33.32
2024-04-11T00:39:24.173Z,32.96
2024-04-11T00:40:24.131Z,32.47
2024-04-11T00:41:24.142Z,32.42
2024-04-11T00:42:24.053Z,32.29
2024-04-11T00:43:24.011Z,31.38
2024-04-11T00:44:24.000Z,31.13
2024-04-11T00:46:26.813Z,0.50
2024-04-11T00:47:27.941Z,0.50
2024-04-11T00:48:27.937Z,0.50
2024-04-11T00:49:27.884Z,0.50
2024-04-11T00:50:27.877Z,0.50
2024-04-11T00:51:27.835Z,0.50
2024-04-11T00:52:27.838Z,0.50
2024-04-11T00:53:27.930Z,0.51
2024-04-11T00:54:27.868Z,0.51
2024-04-11T00:55:27.905Z,0.50
2024-04-11T00:56:27.895Z,0.50
2024-04-11T00:57:27.928Z,0.50
2024-04-11T00:58:27.879Z,0.51
2024-04-11T00:59:27.930Z,0.51
2024-04-11T01:00:27.892Z,0.51
2024-04-11T01:01:27.884Z,0.51
2024-04-11T01:02:27.967Z,0.51
2024-04-11T01:03:28.144Z,0.50
2024-04-11T01:04:27.908Z,0.51
2024-04-11T01:05:27.917Z,0.50
2024-04-11T01:06:27.861Z,0.51
2024-04-11T01:07:27.868Z,0.51
2024-04-11T01:08:27.906Z,0.51
2024-04-11T01:09:27.871Z,0.51
2024-04-11T01:10:27.869Z,0.53
2024-04-11T01:11:27.934Z,0.55
2024-04-11T01:12:27.889Z,0.56
2024-04-11T01:13:27.917Z,0.57
2024-04-11T01:14:27.945Z,0.57
2024-04-11T01:15:27.894Z,0.59
2024-04-11T01:16:27.916Z,0.60
2024-04-11T01:17:28.101Z,0.61
2024-04-11T01:18:27.976Z,0.62
2024-04-11T01:19:27.954Z,0.63
2024-04-11T01:20:27.940Z,0.64
2024-04-11T01:21:27.944Z,0.65
2024-04-11T01:22:27.915Z,0.66
2024-04-11T01:23:27.944Z,0.66
2024-04-11T01:24:27.950Z,0.67
2024-04-11T01:25:27.940Z,0.66
2024-04-11T01:26:27.966Z,0.64
2024-04-11T01:27:27.940Z,0.66
2024-04-11T01:28:27.947Z,0.67
2024-04-11T01:29:27.990Z,0.68
2024-04-11T01:30:27.961Z,0.70
2024-04-11T01:31:27.995Z,0.71
2024-04-11T01:32:28.149Z,0.73
2024-04-11T01:33:28.271Z,0.73
2024-04-11T01:34:28.309Z,0.75
2024-04-11T01:35:28.208Z,0.75
2024-04-11T01:36:28.234Z,0.77
2024-04-11T01:37:28.312Z,0.80
2024-04-11T01:38:28.443Z,0.82
2024-04-11T01:39:28.441Z,0.86
2024-04-11T01:40:28.515Z,0.89
2024-04-11T01:41:28.603Z,0.92
2024-04-11T01:42:28.653Z,0.95
2024-04-11T01:43:28.740Z,0.99
2024-04-11T01:44:28.850Z,1.03
2024-04-11T01:45:28.874Z,1.06
2024-04-11T01:46:29.066Z,1.04
2024-04-11T01:47:29.071Z,0.97
2024-04-11T01:48:29.160Z,0.87
2024-04-11T01:49:29.090Z,0.78
2024-04-11T01:50:29.146Z,0.76
2024-04-11T01:51:29.124Z,0.71
2024-04-11T01:52:29.168Z,0.65
2024-04-11T01:53:29.229Z,0.61
2024-04-11T01:54:29.231Z,0.58
2024-04-11T01:55:29.283Z,0.57
2024-04-11T01:56:29.340Z,0.56
2024-04-11T01:57:29.395Z,0.58
2024-04-11T01:58:29.400Z,0.61
2024-04-11T01:59:29.417Z,0.64
2024-04-11T02:00:29.414Z,0.66
2024-04-11T02:01:29.442Z,0.67
2024-04-11T02:02:29.503Z,0.67
2024-04-11T02:03:29.633Z,0.66
2024-04-11T02:04:29.601Z,0.63
2024-04-11T02:05:29.486Z,0.63
2024-04-11T02:06:29.501Z,0.62
2024-04-11T02:07:29.484Z,0.62
2024-04-11T02:08:29.538Z,0.62
2024-04-11T02:09:29.518Z,0.62
2024-04-11T02:10:29.520Z,0.60
2024-04-11T02:11:29.577Z,0.60
2024-04-11T02:12:29.657Z,0.57
2024-04-11T02:13:29.619Z,0.57
2024-04-11T02:14:29.676Z,0.56
2024-04-11T02:15:29.610Z,0.55
2024-04-11T02:16:29.655Z,0.54
2024-04-11T02:17:29.648Z,0.56
2024-04-11T02:18:29.696Z,0.55
2024-04-11T02:19:29.631Z,0.56
2024-04-11T02:20:29.699Z,0.55
2024-04-11T02:21:29.689Z,0.55
2024-04-11T02:22:29.679Z,0.54
2024-04-11T02:23:29.708Z,0.55
2024-04-11T02:24:29.691Z,0.56
2024-04-11T02:25:29.701Z,0.56
2024-04-11T02:26:29.755Z,0.57
2024-04-11T02:27:29.738Z,0.58
2024-04-11T02:28:29.761Z,0.58
2024-04-11T02:29:29.802Z,0.58
2024-04-11T02:30:29.815Z,0.58
2024-04-11T02:31:29.838Z,0.57
2024-04-11T02:32:29.916Z,0.57
2024-04-11T02:33:30.008Z,0.56
2024-04-11T02:34:30.055Z,0.57
2024-04-11T02:35:29.937Z,0.58
2024-04-11T02:36:29.906Z,0.59
2024-04-11T02:37:29.924Z,0.61
2024-04-11T02:38:29.962Z,0.63
2024-04-11T02:39:29.932Z,0.64
2024-04-11T02:40:29.988Z,0.67
2024-04-11T02:41:30.030Z,0.70
2024-04-11T02:42:30.036Z,0.71
2024-04-11T02:43:30.070Z,0.74
2024-04-11T02:44:30.169Z,0.76
2024-04-11T02:45:30.143Z,0.75
2024-04-11T02:46:30.199Z,0.73
2024-04-11T02:47:30.258Z,0.72
2024-04-11T02:48:30.397Z,0.69
2024-04-11T02:49:30.237Z,0.70
2024-04-11T02:50:30.288Z,0.70
2024-04-11T02:51:30.290Z,0.70
2024-04-11T02:52:30.321Z,0.72
2024-04-11T02:53:30.397Z,0.73
2024-04-11T02:54:30.371Z,0.72
2024-04-11T02:55:30.398Z,0.72
2024-04-11T02:56:30.434Z,0.69
2024-04-11T02:57:30.448Z,0.68
2024-04-11T02:58:30.495Z,0.65
2024-04-11T02:59:30.625Z,0.62
2024-04-11T03:00:30.690Z,0.62
2024-04-11T03:01:30.692Z,0.61
2024-04-11T03:02:31.021Z,0.60
2024-04-11T03:03:30.952Z,0.60
2024-04-11T03:04:31.013Z,0.60
2024-04-11T03:05:31.098Z,0.61
2024-04-11T03:06:31.037Z,0.63
2024-04-11T03:07:31.094Z,0.64
2024-04-11T03:08:31.163Z,0.65
2024-04-11T03:09:31.174Z,0.66
2024-04-11T03:10:31.218Z,0.67
2024-04-11T03:11:31.332Z,0.68
2024-04-11T03:12:31.300Z,0.70
2024-04-11T03:13:31.306Z,0.72
2024-04-11T03:14:31.376Z,0.74
2024-04-11T03:15:31.365Z,0.76
2024-04-11T03:16:31.701Z,0.78
2024-04-11T03:17:31.465Z,0.78
2024-04-11T03:18:33.593Z,0.75
2024-04-11T03:19:31.404Z,0.75
2024-04-11T03:20:31.413Z,0.75
2024-04-11T03:21:31.404Z,0.75
2024-04-11T03:22:31.417Z,0.74
2024-04-11T03:23:31.463Z,0.74
2024-04-11T03:24:31.420Z,0.74
2024-04-11T03:25:31.427Z,0.72
2024-04-11T03:26:31.494Z,0.74
2024-04-11T03:27:31.441Z,0.73
2024-04-11T03:28:31.456Z,0.73
2024-04-11T03:29:31.489Z,0.75
2024-04-11T03:30:31.491Z,0.76
2024-04-11T03:31:31.470Z,0.79
2024-04-11T03:32:31.659Z,0.82
2024-04-11T03:33:31.658Z,0.83
2024-04-11T03:34:31.529Z,0.87
2024-04-11T03:35:31.499Z,0.89
2024-04-11T03:36:31.481Z,0.93
2024-04-11T03:37:31.465Z,0.96
2024-04-11T03:38:31.507Z,0.99
2024-04-11T03:39:31.463Z,1.01
2024-04-11T03:40:31.462Z,1.03
2024-04-11T03:41:31.492Z,1.05
2024-04-11T03:42:31.478Z,1.05
2024-04-11T03:43:31.570Z,1.04
2024-04-11T03:44:31.492Z,1.04
2024-04-11T03:45:31.480Z,1.04
2024-04-11T03:46:31.467Z,1.08
2024-04-11T03:47:31.588Z,1.11
2024-04-11T03:48:31.589Z,1.13
2024-04-11T03:49:31.858Z,1.15
2024-04-11T03:50:31.524Z,1.14
2024-04-11T03:51:31.913Z,1.18
2024-04-11T03:52:31.495Z,1.18
2024-04-11T03:53:31.519Z,1.21
2024-04-11T03:54:31.520Z,1.21
2024-04-11T03:55:31.535Z,1.21
2024-04-11T03:56:31.670Z,1.23
2024-04-11T03:57:31.606Z,1.20
2024-04-11T03:58:31.601Z,1.19
2024-04-11T03:59:31.646Z,1.21
2024-04-11T04:00:31.623Z,1.18
2024-04-11T04:01:31.855Z,1.17
2024-04-11T04:02:31.773Z,1.12
2024-04-11T04:03:31.861Z,1.09
2024-04-11T04:04:31.795Z,1.08
2024-04-11T04:05:31.768Z,1.10
2024-04-11T04:06:31.730Z,1.08
2024-04-11T04:07:32.867Z,1.07
2024-04-11T04:08:31.813Z,1.11
2024-04-11T04:09:31.743Z,1.17
2024-04-11T04:10:31.743Z,1.14
2024-04-11T04:11:31.909Z,1.22
2024-04-11T04:12:31.888Z,1.21
2024-04-11T04:13:31.729Z,1.21
2024-04-11T04:14:33.306Z,1.22
2024-04-11T04:15:31.727Z,1.25
2024-04-11T04:16:31.882Z,1.26
2024-04-11T04:17:31.843Z,1.25
2024-04-11T04:18:31.840Z,1.23
2024-04-11T04:19:31.746Z,1.24
2024-04-11T04:20:31.782Z,1.22
2024-04-11T04:21:31.731Z,1.20
2024-04-11T04:22:31.757Z,1.22
2024-04-11T04:23:31.799Z,1.26
2024-04-11T04:24:31.741Z,1.29
2024-04-11T04:25:31.740Z,1.32
2024-04-11T04:26:31.868Z,1.26
2024-04-11T04:27:31.767Z,1.20
2024-04-11T04:28:31.805Z,1.11
2024-04-11T04:29:31.795Z,1.06
2024-04-11T04:30:31.774Z,1.03
2024-04-11T04:31:31.756Z,0.99
2024-04-11T04:32:31.904Z,0.96
2024-04-11T04:33:32.050Z,0.95
2024-04-11T04:34:31.896Z,0.87
2024-04-11T04:35:31.790Z,0.87
2024-04-11T04:36:31.768Z,0.83
2024-04-11T04:37:39.110Z,0.50
2024-04-11T04:38:40.178Z,0.50
2024-04-11T04:39:40.093Z,0.50
2024-04-11T04:40:40.183Z,0.50
2024-04-11T04:41:40.120Z,0.50
2024-04-11T04:42:40.112Z,0.50
2024-04-11T04:43:40.104Z,0.50
2024-04-11T04:44:40.147Z,0.51
2024-04-11T04:45:40.144Z,0.50
2024-04-11T04:46:40.120Z,0.51
2024-04-11T04:47:40.339Z,0.50
2024-04-11T04:48:40.380Z,0.51
2024-04-11T04:49:40.143Z,0.52
2024-04-11T04:50:42.028Z,0.52
2024-04-11T04:51:40.144Z,0.52
2024-04-11T04:52:40.141Z,0.52
2024-04-11T04:53:40.291Z,0.53
2024-04-11T04:54:40.147Z,0.56
2024-04-11T04:55:40.168Z,0.58
2024-04-11T04:56:40.187Z,0.59
2024-04-11T04:57:40.162Z,0.60
2024-04-11T04:58:40.173Z,0.62
2024-04-11T04:59:40.190Z,0.62
2024-04-11T05:00:40.271Z,0.65
2024-04-11T05:01:40.217Z,0.70
2024-04-11T05:02:40.325Z,0.74
2024-04-11T05:03:40.549Z,0.71
2024-04-11T05:04:40.263Z,0.70
2024-04-11T05:05:40.328Z,0.72
2024-04-11T05:06:40.261Z,0.70
2024-04-11T05:07:40.267Z,0.70
2024-04-11T05:08:40.282Z,0.69
2024-04-11T05:09:40.296Z,0.70
2024-04-11T05:10:40.330Z,0.75
2024-04-11T05:11:40.490Z,0.73
2024-04-11T05:12:40.398Z,0.74
2024-04-11T05:13:40.334Z,0.72
2024-04-11T05:14:40.488Z,0.68
2024-04-11T05:15:40.386Z,0.64
2024-04-11T05:16:40.403Z,0.62
2024-04-11T05:17:40.439Z,0.64
2024-04-11T05:18:40.437Z,0.62
2024-04-11T05:19:40.365Z,0.61
2024-04-11T05:20:40.395Z,0.61
2024-04-11T05:21:40.397Z,0.60
2024-04-11T05:22:40.389Z,0.59
2024-04-11T05:23:40.413Z,0.60
2024-04-11T05:24:40.419Z,0.60
2024-04-11T05:25:40.430Z,0.58
2024-04-11T05:26:40.469Z,0.58
2024-04-11T05:27:40.445Z,0.58
2024-04-11T05:28:41.525Z,0.59
2024-04-11T05:29:40.474Z,0.59
2024-04-11T05:30:40.450Z,0.59
2024-04-11T05:31:40.461Z,0.61
2024-04-11T05:32:40.551Z,0.60
2024-04-11T05:33:40.740Z,0.58
2024-04-11T05:34:40.616Z,0.57
2024-04-11T05:35:40.524Z,0.57
2024-04-11T05:36:40.470Z,0.56
2024-04-11T05:37:40.498Z,0.54
2024-04-11T05:38:40.504Z,0.56
2024-04-11T05:39:40.745Z,0.57
2024-04-11T05:40:40.564Z,0.58
2024-04-11T05:41:40.602Z,0.61
2024-04-11T05:42:40.602Z,0.60
2024-04-11T05:43:40.690Z,0.63
2024-04-11T05:44:40.767Z,0.64
2024-04-11T05:45:40.816Z,0.67
2024-04-11T05:46:40.925Z,0.70
2024-04-11T05:47:41.379Z,0.72
2024-04-11T05:48:41.020Z,0.73
2024-04-11T05:49:41.051Z,0.75
2024-04-11T05:50:41.131Z,0.81
2024-04-11T05:51:41.138Z,0.82
2024-04-11T05:52:41.167Z,0.85
2024-04-11T05:53:41.789Z,0.84
2024-04-11T05:54:41.272Z,0.85
2024-04-11T05:55:41.315Z,0.86
2024-04-11T05:56:41.423Z,0.84
2024-04-11T05:57:41.739Z,0.85
2024-04-11T05:58:41.462Z,0.85
2024-04-11T05:59:41.801Z,0.85
2024-04-11T06:00:42.078Z,0.89
2024-04-11T06:01:41.591Z,0.81
2024-04-11T06:02:41.680Z,0.71
2024-04-11T06:03:41.805Z,0.64
2024-04-11T06:04:41.745Z,0.59
2024-04-11T06:05:41.820Z,0.56
2024-04-11T06:06:44.945Z,0.53
2024-04-11T06:07:41.713Z,0.53
2024-04-11T06:08:41.704Z,0.52
2024-04-11T06:09:41.670Z,0.52
2024-04-11T06:10:41.670Z,0.51
2024-04-11T06:11:41.828Z,0.52
2024-04-11T06:12:41.830Z,0.53
2024-04-11T06:13:41.611Z,0.53
2024-04-11T06:14:41.767Z,0.55
2024-04-11T06:15:41.614Z,0.56
2024-04-11T06:16:41.653Z,0.59
2024-04-11T06:17:41.647Z,0.61
2024-04-11T06:18:42.706Z,0.61
2024-04-11T06:19:41.678Z,0.61
2024-04-11T06:20:41.829Z,0.61
2024-04-11T06:21:41.612Z,0.58
2024-04-11T06:22:41.628Z,0.56
2024-04-11T06:23:41.797Z,0.56
2024-04-11T06:24:41.746Z,0.54
2024-04-11T06:25:41.662Z,0.52
2024-04-11T06:26:41.748Z,0.53
2024-04-11T06:27:41.699Z,0.53
2024-04-11T06:28:42.020Z,0.52
2024-04-11T06:29:41.850Z,0.50
2024-04-11T06:31:41.810Z,0.50
2024-04-11T06:32:43.229Z,0.51
2024-04-11T06:33:42.522Z,0.50
2024-04-11T06:34:42.057Z,0.51
2024-04-11T06:35:41.793Z,0.53
2024-04-11T06:36:42.151Z,0.56
2024-04-11T06:37:41.768Z,0.63
2024-04-11T06:38:41.922Z,0.70
2024-04-11T06:39:41.826Z,0.68
2024-04-11T06:40:41.814Z,0.60
2024-04-11T06:41:41.767Z,0.55
2024-04-11T06:42:41.775Z,0.53
2024-04-11T06:43:41.799Z,0.51
2024-04-11T06:44:42.284Z,0.50
2024-04-11T06:45:41.776Z,0.51
2024-04-11T06:46:41.764Z,0.51
2024-04-11T06:47:48.052Z,0.50
2024-04-11T06:48:41.885Z,0.50
2024-04-11T06:49:44.536Z,0.50
2024-04-11T06:50:41.767Z,0.49
2024-04-11T06:51:41.685Z,0.48
2024-04-11T06:52:41.664Z,0.46
2024-04-11T06:53:41.774Z,0.44
2024-04-11T06:54:41.762Z,0.42
2024-04-11T06:55:41.614Z,0.52
2024-04-11T06:56:41.648Z,0.51
2024-04-11T06:57:41.562Z,0.50
2024-04-11T06:58:41.569Z,0.50
2024-04-11T06:59:41.830Z,0.50
2024-04-11T07:00:41.534Z,0.50
2024-04-11T07:01:43.807Z,0.50
2024-04-11T07:02:41.646Z,0.49
2024-04-11T07:03:42.205Z,0.45
2024-04-11T07:04:41.868Z,0.45
2024-04-11T07:05:41.492Z,0.47
2024-04-11T07:06:41.657Z,0.46
2024-04-11T07:07:41.588Z,0.50
2024-04-11T07:08:41.592Z,0.50
2024-04-11T07:09:41.583Z,0.53
2024-04-11T07:10:41.566Z,0.54
2024-04-11T07:11:41.820Z,0.56
2024-04-11T07:12:41.607Z,0.57
2024-04-11T07:13:41.533Z,0.56
2024-04-11T07:14:41.822Z,0.55
2024-04-11T07:15:41.534Z,0.55
2024-04-11T07:16:41.889Z,0.56
2024-04-11T07:17:41.553Z,0.54
2024-04-11T07:18:41.486Z,0.54
2024-04-11T07:19:41.496Z,0.55
2024-04-11T07:20:41.586Z,0.55
2024-04-11T07:21:41.464Z,0.57
2024-04-11T07:22:41.410Z,0.56
2024-04-11T07:23:41.444Z,0.55
2024-04-11T07:24:41.778Z,0.55
2024-04-11T07:25:41.403Z,0.55
2024-04-11T07:26:41.446Z,0.52
2024-04-11T07:27:41.427Z,0.50
2024-04-11T07:28:41.416Z,0.50
2024-04-11T07:29:41.417Z,0.53
2024-04-11T07:30:41.771Z,0.52
2024-04-11T07:31:41.815Z,0.51
2024-04-11T07:32:41.804Z,0.51
2024-04-11T07:33:41.795Z,0.51
2024-04-11T07:34:41.761Z,0.51
2024-04-11T07:35:41.551Z,0.54
2024-04-11T07:36:42.156Z,0.55
2024-04-11T07:37:41.644Z,0.55
2024-04-11T07:38:41.663Z,0.53
2024-04-11T07:39:41.586Z,0.50
2024-04-11T07:40:41.562Z,0.51
2024-04-11T07:41:41.661Z,0.50
2024-04-11T07:42:41.633Z,0.51
2024-04-11T07:43:41.633Z,0.51
2024-04-11T07:44:41.824Z,0.52
2024-04-11T07:45:41.694Z,0.50
2024-04-11T07:46:47.468Z,0.51
2024-04-11T07:47:50.219Z,0.51
2024-04-11T07:48:41.788Z,0.51
2024-04-11T07:49:42.252Z,0.52
2024-04-11T07:50:41.623Z,0.53
2024-04-11T07:51:41.552Z,0.53
2024-04-11T07:52:41.538Z,0.52
2024-04-11T07:53:41.545Z,0.52
2024-04-11T07:54:47.179Z,0.51
2024-04-11T07:55:41.788Z,0.51
2024-04-11T07:56:41.461Z,0.50
2024-04-11T07:57:41.414Z,0.48
2024-04-11T07:58:41.279Z,0.45
2024-04-11T07:59:42.314Z,0.41
2024-04-11T08:00:41.349Z,0.45
2024-04-11T08:01:41.170Z,0.51
2024-04-11T08:02:41.150Z,0.50
2024-04-11T08:03:41.091Z,0.51
2024-04-11T08:04:41.120Z,0.51
2024-04-11T08:05:41.303Z,0.53
2024-04-11T08:06:41.042Z,0.54
2024-04-11T08:07:40.977Z,0.54
2024-04-11T08:08:40.983Z,0.55
2024-04-11T08:09:41.002Z,0.56
2024-04-11T08:10:41.035Z,0.53
2024-04-11T08:11:41.103Z,0.52
2024-04-11T08:12:40.992Z,0.50
2024-04-11T08:13:43.447Z,0.50
2024-04-11T08:14:41.099Z,0.50
2024-04-11T08:15:40.928Z,0.45
2024-04-11T08:16:40.983Z,0.37
2024-04-11T08:17:40.962Z,0.32
2024-04-11T08:18:40.858Z,0.28
2024-04-11T08:19:47.966Z,0.35
2024-04-11T08:20:40.698Z,0.29
2024-04-11T08:21:40.659Z,0.26
2024-04-11T08:22:40.563Z,0.24
2024-04-11T08:23:40.612Z,0.23
2024-04-11T08:24:40.493Z,0.20
2024-04-11T08:25:40.456Z,0.23
2024-04-11T08:26:40.403Z,0.26
2024-04-11T08:27:40.351Z,0.30
2024-04-11T08:28:40.288Z,0.33
2024-04-11T08:29:40.271Z,0.35
2024-04-11T08:30:40.196Z,0.39
2024-04-11T08:31:40.287Z,0.42
2024-04-11T08:32:40.148Z,0.46
2024-04-11T08:33:40.160Z,0.48
2024-04-11T08:34:40.029Z,0.50
2024-04-11T08:35:40.019Z,0.50
2024-04-11T08:36:39.912Z,0.50
2024-04-11T08:37:39.843Z,0.50
2024-04-11T08:38:39.816Z,0.50
2024-04-11T08:39:39.759Z,0.50
2024-04-11T08:40:39.706Z,0.49
2024-04-11T08:41:39.894Z,0.50
2024-04-11T08:42:39.584Z,0.50
2024-04-11T08:43:42.729Z,0.50
2024-04-11T08:44:39.875Z,0.50
2024-04-11T08:45:39.455Z,0.50
2024-04-11T08:46:39.415Z,0.51
2024-04-11T08:47:39.345Z,0.53
2024-04-11T08:48:39.619Z,0.55
2024-04-11T08:49:39.488Z,0.58
2024-04-11T08:50:39.328Z,0.59
2024-04-11T08:51:41.983Z,0.64
2024-04-11T08:52:38.967Z,0.64
2024-04-11T08:53:51.535Z,0.65
2024-04-11T08:54:39.059Z,0.64
2024-04-11T08:55:38.783Z,0.68
2024-04-11T08:56:38.860Z,0.76
2024-04-11T08:57:38.657Z,0.94
2024-04-11T08:58:38.589Z,1.25
2024-04-11T08:59:38.679Z,1.32
2024-04-11T09:00:38.480Z,1.38
2024-04-11T09:01:38.482Z,1.54
2024-04-11T09:02:38.458Z,1.57
2024-04-11T09:03:38.405Z,1.47
2024-04-11T09:04:38.261Z,1.47
2024-04-11T09:05:38.255Z,1.53
2024-04-11T09:06:38.240Z,1.59
2024-04-11T09:07:39.226Z,1.71
2024-04-11T09:08:38.449Z,1.89
2024-04-11T09:09:37.977Z,2.00
2024-04-11T09:10:37.911Z,2.16
2024-04-11T09:11:38.013Z,2.27
2024-04-11T09:12:37.834Z,2.29
2024-04-11T09:13:37.838Z,2.28
2024-04-11T09:14:37.860Z,2.38
2024-04-11T09:15:37.869Z,2.19
2024-04-11T09:16:37.890Z,2.16
2024-04-11T09:17:37.933Z,2.11
2024-04-11T09:18:37.911Z,1.93
2024-04-11T09:19:37.787Z,1.88
2024-04-11T09:20:37.857Z,1.86
2024-04-11T09:21:38.308Z,1.76
2024-04-11T09:22:37.804Z,1.69
2024-04-11T09:23:37.797Z,1.68
2024-04-11T09:24:37.805Z,1.73
2024-04-11T09:25:37.795Z,1.83
2024-04-11T09:26:37.835Z,1.87
2024-04-11T09:27:37.799Z,1.92
2024-04-11T09:28:37.948Z,1.79
2024-04-11T09:29:37.830Z,1.73
2024-04-11T09:30:37.736Z,1.68
2024-04-11T09:31:38.464Z,1.56
2024-04-11T09:32:37.808Z,1.59
2024-04-11T09:33:37.815Z,1.44
2024-04-11T09:34:39.719Z,1.47
2024-04-11T09:35:37.697Z,1.47
2024-04-11T09:36:37.631Z,1.52
2024-04-11T09:37:37.542Z,1.58
2024-04-11T09:38:37.552Z,1.67
2024-04-11T09:39:37.801Z,1.79
2024-04-11T09:40:37.362Z,1.66
2024-04-11T09:41:38.049Z,1.56
2024-04-11T09:42:37.351Z,1.50
2024-04-11T09:43:37.169Z,1.41
2024-04-11T09:44:37.116Z,1.44
2024-04-11T09:45:37.043Z,1.56
2024-04-11T09:46:37.006Z,1.56
2024-04-11T09:47:37.374Z,1.55
2024-04-11T09:48:37.069Z,1.49
2024-04-11T09:49:36.821Z,1.48
2024-04-11T09:50:36.773Z,1.66
2024-04-11T09:51:36.702Z,1.72
2024-04-11T09:52:36.624Z,1.83
2024-04-11T09:53:36.632Z,1.88
2024-04-11T09:54:36.623Z,1.80
2024-04-11T09:55:36.550Z,1.63
2024-04-11T09:56:36.598Z,1.47
2024-04-11T09:57:36.539Z,1.28
2024-04-11T09:58:36.540Z,1.22
2024-04-11T09:59:36.833Z,1.23
2024-04-11T10:00:36.554Z,1.22
2024-04-11T10:01:36.534Z,1.08
2024-04-11T10:02:36.612Z,1.01
2024-04-11T10:03:36.626Z,0.99
2024-04-11T10:04:36.801Z,1.07
2024-04-11T10:05:36.535Z,1.15
2024-04-11T10:06:36.435Z,1.27
2024-04-11T10:07:36.373Z,1.33
2024-04-11T10:08:36.362Z,1.39
2024-04-11T10:09:36.301Z,1.40
2024-04-11T10:10:36.256Z,1.36
2024-04-11T10:11:36.312Z,1.34
2024-04-11T10:12:36.225Z,1.26
2024-04-11T10:13:36.153Z,1.21
2024-04-11T10:14:36.144Z,1.24
2024-04-11T10:15:36.658Z,1.17
2024-04-11T10:16:36.080Z,1.11
2024-04-11T10:17:36.156Z,1.11
2024-04-11T10:18:36.875Z,1.15
2024-04-11T10:19:36.173Z,1.19
2024-04-11T10:20:36.072Z,1.17
2024-04-11T10:21:41.395Z,1.15
2024-04-11T10:22:35.985Z,1.15
2024-04-11T10:23:35.912Z,1.16
2024-04-11T10:24:36.441Z,1.18
2024-04-11T10:25:35.822Z,1.25
2024-04-11T10:26:35.776Z,1.32
2024-04-11T10:27:36.574Z,1.31
2024-04-11T10:28:35.557Z,1.21
2024-04-11T10:29:35.528Z,1.18
2024-04-11T10:30:35.560Z,1.11
2024-04-11T10:31:35.350Z,1.14
2024-04-11T10:32:35.392Z,1.15
2024-04-11T10:33:35.553Z,1.21
2024-04-11T10:34:35.143Z,1.20
2024-04-11T10:35:35.107Z,1.28
2024-04-11T10:36:35.036Z,1.31
2024-04-11T10:37:35.513Z,1.38
2024-04-11T10:38:35.387Z,1.33
2024-04-11T10:39:34.763Z,1.35
2024-04-11T10:40:34.692Z,1.28
2024-04-11T10:41:34.656Z,1.35
2024-04-11T10:42:34.613Z,1.28
2024-04-11T10:43:34.624Z,1.32
2024-04-11T10:44:34.642Z,1.53
2024-04-11T10:45:34.631Z,1.59
2024-04-11T10:46:34.651Z,1.69
2024-04-11T10:47:34.725Z,1.63
2024-04-11T10:48:34.759Z,1.47
2024-04-11T10:49:34.573Z,1.56
2024-04-11T10:50:34.556Z,1.52
2024-04-11T10:51:34.556Z,1.54
2024-04-11T10:52:34.557Z,1.50
2024-04-11T10:53:34.557Z,1.47
2024-04-11T10:54:34.822Z,1.59
2024-04-11T10:55:34.476Z,1.78
2024-04-11T10:56:34.837Z,1.88
2024-04-11T10:57:34.476Z,1.93
2024-04-11T10:58:34.489Z,2.02
2024-04-11T10:59:34.532Z,2.16
2024-04-11T11:00:34.483Z,2.39
2024-04-11T11:01:35.695Z,2.28
2024-04-11T11:02:34.538Z,2.17
2024-04-11T11:03:34.605Z,2.12
2024-04-11T11:04:34.322Z,2.11
2024-04-11T11:05:34.307Z,1.94
2024-04-11T11:06:34.356Z,1.84
2024-04-11T11:07:34.148Z,1.81
2024-04-11T11:08:34.135Z,1.87
2024-04-11T11:09:34.037Z,1.81
2024-04-11T11:10:33.985Z,1.91
2024-04-11T11:11:34.003Z,2.12
2024-04-11T11:12:33.883Z,2.28
2024-04-11T11:13:33.810Z,2.12
2024-04-11T11:14:34.729Z,1.92
2024-04-11T11:15:33.731Z,1.74
2024-04-11T11:16:33.703Z,1.74
2024-04-11T11:17:33.698Z,1.65
2024-04-11T11:18:33.718Z,1.76
2024-04-11T11:19:33.536Z,1.96
2024-04-11T11:20:33.544Z,2.11
2024-04-11T11:21:33.436Z,1.92
2024-04-11T11:22:33.429Z,1.76
2024-04-11T11:23:33.400Z,1.70
2024-04-11T11:24:33.859Z,1.72
2024-04-11T11:25:33.314Z,1.70
2024-04-11T11:26:33.318Z,1.86
2024-04-11T11:27:33.842Z,1.87
2024-04-11T11:28:33.208Z,1.69
2024-04-11T11:29:33.260Z,1.58
2024-04-11T11:30:33.213Z,1.46
2024-04-11T11:31:33.196Z,1.37
2024-04-11T11:32:33.286Z,1.35
2024-04-11T11:33:33.191Z,1.39
2024-04-11T11:34:33.110Z,1.32
2024-04-11T11:35:33.111Z,1.26
2024-04-11T11:36:33.050Z,1.27
2024-04-11T11:37:33.044Z,1.30
2024-04-11T11:38:33.001Z,1.19
2024-04-11T11:39:33.357Z,1.17
2024-04-11T11:40:32.953Z,1.17
2024-04-11T11:41:32.989Z,1.16
2024-04-11T11:42:32.905Z,1.07
2024-04-11T11:43:32.859Z,1.06
2024-04-11T11:44:32.872Z,1.06
2024-04-11T11:45:32.872Z,1.15
2024-04-11T11:46:32.861Z,1.21
2024-04-11T11:47:33.520Z,1.14
2024-04-11T11:48:33.106Z,1.21
2024-04-11T11:49:32.915Z,1.22
2024-04-11T11:50:33.426Z,1.22
2024-04-11T11:51:32.848Z,1.29
2024-04-11T11:52:32.849Z,1.26
2024-04-11T11:53:33.011Z,1.32
2024-04-11T11:54:32.845Z,1.34
2024-04-11T11:55:33.344Z,1.30
2024-04-11T11:56:32.844Z,1.22
2024-04-11T11:57:32.837Z,1.22
2024-04-11T11:58:32.849Z,1.20
2024-04-11T11:59:32.830Z,1.13
2024-04-11T12:00:32.847Z,1.06
2024-04-11T12:01:32.859Z,1.02
2024-04-11T12:02:32.931Z,0.99
2024-04-11T12:03:35.181Z,0.92
2024-04-11T12:04:32.802Z,0.87
2024-04-11T12:05:32.742Z,0.92
2024-04-11T12:06:32.648Z,0.94
2024-04-11T12:07:32.585Z,1.01
2024-04-11T12:08:32.552Z,1.08
2024-04-11T12:09:32.466Z,1.12
2024-04-11T12:10:32.376Z,1.01
2024-04-11T12:11:32.474Z,1.01
2024-04-11T12:12:35.912Z,1.06
2024-04-11T12:13:32.157Z,1.07
2024-04-11T12:14:32.078Z,1.08
2024-04-11T12:15:32.001Z,1.12
2024-04-11T12:16:32.366Z,1.19
2024-04-11T12:17:31.920Z,1.28
2024-04-11T12:18:31.814Z,1.26
2024-04-11T12:19:31.722Z,1.27
2024-04-11T12:20:31.674Z,1.36
2024-04-11T12:21:31.853Z,1.34
2024-04-11T12:22:31.527Z,1.36
2024-04-11T12:23:31.476Z,1.42
2024-04-11T12:24:31.412Z,1.28
2024-04-11T12:25:31.374Z,1.15
2024-04-11T12:26:31.553Z,1.14
2024-04-11T12:27:31.253Z,1.09
2024-04-11T12:28:31.193Z,1.08
2024-04-11T12:29:31.428Z,1.02
2024-04-11T12:30:31.069Z,0.98
2024-04-11T12:31:31.024Z,0.88
2024-04-11T12:32:30.994Z,0.84
2024-04-11T12:33:30.983Z,0.91
2024-04-11T12:34:30.873Z,0.93
2024-04-11T12:35:30.743Z,1.09
2024-04-11T12:36:30.642Z,1.18
2024-04-11T12:37:30.597Z,1.11
2024-04-11T12:38:30.536Z,1.11
2024-04-11T12:39:30.526Z,1.15
2024-04-11T12:40:30.520Z,1.21
2024-04-11T12:41:30.880Z,1.14
2024-04-11T12:42:30.494Z,1.20
2024-04-11T12:43:30.493Z,1.07
2024-04-11T12:44:30.520Z,1.06
2024-04-11T12:45:30.891Z,1.01
2024-04-11T12:46:30.570Z,1.05
2024-04-11T12:47:31.611Z,0.94
2024-04-11T12:48:31.074Z,0.88
2024-04-11T12:49:31.060Z,0.82
2024-04-11T12:50:30.439Z,0.73
2024-04-11T12:51:30.398Z,0.66
2024-04-11T12:52:30.435Z,0.64
2024-04-11T12:53:30.392Z,0.63
2024-04-11T12:54:32.601Z,0.59
2024-04-11T12:55:30.256Z,0.59
2024-04-11T12:56:30.232Z,0.53
2024-04-11T12:57:31.070Z,0.48
2024-04-11T12:58:30.066Z,0.50
2024-04-11T12:59:30.377Z,0.51
2024-04-11T13:00:30.555Z,0.52
2024-04-11T13:01:29.923Z,0.50
2024-04-11T13:02:29.917Z,0.50
2024-04-11T13:03:29.944Z,0.56
2024-04-11T13:04:29.868Z,0.63
2024-04-11T13:05:29.890Z,0.73
2024-04-11T13:06:29.783Z,0.78
2024-04-11T13:07:29.783Z,0.78
2024-04-11T13:08:32.311Z,0.66
2024-04-11T13:09:29.885Z,0.62
2024-04-11T13:10:29.589Z,0.61
2024-04-11T13:11:29.651Z,0.60
2024-04-11T13:12:29.472Z,0.59
2024-04-11T13:13:29.357Z,0.62
2024-04-11T13:14:29.307Z,0.73
2024-04-11T13:15:29.194Z,0.83
2024-04-11T13:16:29.230Z,0.87
2024-04-11T13:17:29.110Z,1.04
2024-04-11T13:18:29.094Z,1.04